Time;durP1;ratioP1;P1;durP2;ratioP2;P2;SDS_P1;SDS_P2;PMS_P1;PMS_P2;Temp;Humidity;BMP_temperature;BMP_pressure;BME280_temperature;BME280_humidity;BME280_pressure;Samples;Min_cycle;Max_cycle;Signal;HPM_P1;HPM_P2
2022/05/13 00:01:47;;;;;;;0.00;0.00;;;21.40;73.30;;;;;;4120846;28;20139;-69
2022/05/13 00:04:12;;;;;;;0.00;0.00;;;21.40;73.30;;;;;;4148142;28;20062;-68
2022/05/13 00:06:38;;;;;;;0.00;0.00;;;21.30;73.50;;;;;;4134511;28;20046;-68
2022/05/13 00:09:00;;;;;;;0.00;0.00;;;21.10;73.90;;;;;;4147930;28;20050;-69
2022/05/13 00:11:26;;;;;;;0.00;0.00;;;21.00;74.30;;;;;;4148628;28;20034;-70
2022/05/13 00:13:51;;;;;;;0.00;0.00;;;20.90;74.70;;;;;;4148670;28;20042;-70
2022/05/13 00:16:27;;;;;;;0.00;0.00;;;20.90;75.00;;;;;;4148726;28;20053;-69
2022/05/13 00:18:52;;;;;;;0.00;0.00;;;20.80;75.10;;;;;;4147779;28;20092;-69
2022/05/13 00:21:28;;;;;;;0.00;0.00;;;20.90;75.00;;;;;;4148622;28;20415;-69
2022/05/13 00:24:11;;;;;;;0.00;0.00;;;20.80;75.20;;;;;;4123122;28;20061;-68
2022/05/13 00:26:35;;;;;;;0.00;0.00;;;20.60;75.40;;;;;;4134221;28;20348;-69
2022/05/13 00:29:03;;;;;;;0.00;0.00;;;20.60;75.80;;;;;;4134326;28;20070;-70
2022/05/13 00:31:26;;;;;;;0.00;0.00;;;20.50;75.90;;;;;;4134414;28;20139;-68
2022/05/13 00:33:53;;;;;;;0.00;0.00;;;20.70;75.60;;;;;;4147777;28;20488;-68
2022/05/13 00:36:19;;;;;;;0.00;0.00;;;20.80;75.30;;;;;;4147705;28;20054;-71
2022/05/13 00:38:42;;;;;;;0.00;0.00;;;21.00;75.30;;;;;;4121059;28;20136;-70
2022/05/13 00:41:07;;;;;;;0.00;0.00;;;21.10;75.90;;;;;;4147677;28;20112;-68
2022/05/13 00:43:37;;;;;;;0.00;0.00;;;21.10;75.60;;;;;;4148434;28;20469;-70
2022/05/13 00:45:59;;;;;;;0.00;0.00;;;21.00;75.50;;;;;;4148230;28;20116;-68
2022/05/13 00:48:31;;;;;;;0.00;0.00;;;21.00;75.50;;;;;;4133646;28;20051;-71
2022/05/13 00:50:59;;;;;;;0.00;0.00;;;21.00;75.50;;;;;;4148315;28;20045;-67
2022/05/13 00:53:26;;;;;;;0.00;0.00;;;21.00;75.30;;;;;;4133971;28;20039;-69
2022/05/13 00:55:48;;;;;;;0.00;0.00;;;21.00;75.30;;;;;;4133894;28;20116;-67
2022/05/13 00:58:17;;;;;;;0.00;0.00;;;21.10;75.40;;;;;;4134433;28;20132;-68
2022/05/13 01:00:47;;;;;;;0.00;0.00;;;21.10;75.40;;;;;;4136827;28;20440;-69
2022/05/13 01:03:26;;;;;;;0.00;0.00;;;21.10;75.40;;;;;;4151271;28;20125;-69
2022/05/13 01:05:54;;;;;;;0.00;0.00;;;21.10;75.30;;;;;;4151135;28;20407;-68
2022/05/13 01:08:19;;;;;;;0.00;0.00;;;21.10;76.00;;;;;;4151080;28;20427;-68
2022/05/13 01:10:48;;;;;;;0.00;0.00;;;21.10;75.40;;;;;;4150708;28;20137;-68
2022/05/13 01:13:31;;;;;;;0.00;0.00;;;21.00;75.40;;;;;;4138607;28;20054;-68
2022/05/13 01:15:59;;;;;;;0.00;0.00;;;21.00;75.80;;;;;;4123846;28;20484;-68
2022/05/13 01:18:37;;;;;;;0.00;0.00;;;20.90;76.20;;;;;;4137118;28;20046;-69
2022/05/13 01:21:00;;;;;;;0.00;0.00;;;20.90;76.10;;;;;;4136628;28;20138;-67
2022/05/13 01:23:33;;;;;;;0.00;0.00;;;20.90;76.00;;;;;;4136531;28;20042;-72
2022/05/13 01:26:06;;;;;;;0.00;0.00;;;20.90;76.30;;;;;;4137198;28;20049;-71
2022/05/13 01:28:50;;;;;;;0.00;0.00;;;20.90;76.70;;;;;;4150223;28;20054;-68
2022/05/13 01:31:31;;;;;;;0.00;0.00;;;20.80;76.50;;;;;;4137260;28;20042;-68
2022/05/13 01:34:06;;;;;;;0.00;0.00;;;20.80;76.50;;;;;;4137709;28;20373;-68
2022/05/13 01:36:32;;;;;;;0.00;0.00;;;20.80;76.40;;;;;;4150142;28;20425;-69
2022/05/13 01:39:00;;;;;;;0.00;0.00;;;20.80;76.80;;;;;;4136979;28;20053;-71
2022/05/13 01:41:23;;;;;;;0.00;0.00;;;20.80;76.80;;;;;;4136317;28;20046;-69
2022/05/13 01:43:47;;;;;;;0.00;0.00;;;20.80;77.30;;;;;;4150022;28;20042;-70
2022/05/13 01:46:09;;;;;;;0.00;0.00;;;20.80;77.50;;;;;;4149887;28;20053;-69
2022/05/13 01:48:34;;;;;;;0.00;0.00;;;20.70;78.50;;;;;;4149610;28;20065;-69
2022/05/13 01:50:58;;;;;;;0.00;0.00;;;20.80;79.00;;;;;;4150109;28;20081;-68
2022/05/13 01:53:25;;;;;;;0.00;0.00;;;20.90;79.20;;;;;;4136113;28;20089;-69
2022/05/13 01:55:50;;;;;;;0.00;0.00;;;20.90;79.20;;;;;;4136463;28;20050;-69
2022/05/13 01:58:13;;;;;;;0.00;0.00;;;20.90;79.50;;;;;;4149904;28;20115;-70
2022/05/13 02:00:38;;;;;;;0.00;0.00;;;20.90;79.20;;;;;;4149661;28;20038;-67
2022/05/13 02:05:45;;;;;;;0.00;0.00;;;20.80;80.30;;;;;;4136000;28;20046;-71
2022/05/13 02:08:09;;;;;;;0.00;0.00;;;20.90;81.10;;;;;;4135921;28;20124;-70
2022/05/13 02:10:34;;;;;;;0.00;0.00;;;20.90;81.10;;;;;;4149274;28;20377;-67
2022/05/13 02:12:57;;;;;;;0.00;0.00;;;20.80;81.30;;;;;;4135902;28;20050;-70
2022/05/13 02:15:21;;;;;;;0.00;0.00;;;20.70;81.00;;;;;;4122683;28;20046;-69
2022/05/13 02:17:46;;;;;;;0.00;0.00;;;20.60;81.60;;;;;;4135838;28;20053;-66
2022/05/13 02:20:10;;;;;;;0.00;0.00;;;20.70;82.10;;;;;;4135955;28;20054;-69
2022/05/13 02:22:36;;;;;;;0.00;0.00;;;20.70;82.40;;;;;;4151658;28;20046;-69
2022/05/13 02:25:01;;;;;;;0.00;0.00;;;20.70;82.50;;;;;;4138193;28;20057;-67
2022/05/13 02:27:25;;;;;;;0.00;0.00;;;20.70;82.70;;;;;;4152106;28;20050;-67
2022/05/13 02:29:49;;;;;;;0.00;0.00;;;20.60;82.80;;;;;;4138173;28;20054;-68
2022/05/13 02:32:14;;;;;;;0.00;0.00;;;20.70;82.90;;;;;;4165675;28;20053;-71
2022/05/13 02:34:38;;;;;;;0.00;0.00;;;20.70;82.80;;;;;;4151857;28;20053;-66
2022/05/13 02:37:04;;;;;;;0.00;0.00;;;20.70;82.90;;;;;;4151985;28;20048;-68
2022/05/13 02:39:26;;;;;;;0.00;0.00;;;20.80;82.80;;;;;;4151943;28;20506;-69
2022/05/13 02:41:49;;;;;;;0.00;0.00;;;20.80;83.00;;;;;;4151994;28;20072;-72
2022/05/13 02:44:14;;;;;;;0.00;0.00;;;20.70;82.70;;;;;;4151375;28;20058;-68
2022/05/13 02:46:39;;;;;;;0.00;0.00;;;20.60;82.70;;;;;;4151745;28;20500;-69
2022/05/13 02:49:04;;;;;;;0.00;0.00;;;20.50;82.90;;;;;;4135311;28;20467;-68
2022/05/13 02:51:29;;;;;;;0.00;0.00;;;20.50;82.90;;;;;;4149178;28;20058;-71
2022/05/13 02:53:52;;;;;;;0.00;0.00;;;20.60;82.80;;;;;;4162541;28;20094;-67
2022/05/13 02:56:19;;;;;;;0.00;0.00;;;20.50;82.60;;;;;;4135311;28;20051;-68
2022/05/13 02:58:46;;;;;;;0.00;0.00;;;20.30;82.60;;;;;;4148798;28;20038;-67
2022/05/13 03:01:11;;;;;;;0.00;0.00;;;20.20;83.20;;;;;;4162535;28;20049;-69
2022/05/13 03:03:41;;;;;;;0.00;0.00;;;20.20;83.60;;;;;;4148988;28;20049;-69
2022/05/13 03:06:03;;;;;;;0.00;0.00;;;20.10;84.40;;;;;;4135007;28;20153;-67
2022/05/13 03:08:25;;;;;;;0.00;0.00;;;20.10;84.80;;;;;;4148622;28;20042;-68
2022/05/13 03:10:50;;;;;;;0.00;0.00;;;20.10;85.40;;;;;;4162385;28;20053;-69
2022/05/13 03:13:18;;;;;;;0.00;0.00;;;20.20;85.70;;;;;;4135045;28;20054;-67
2022/05/13 03:15:42;;;;;;;0.00;0.00;;;20.30;85.40;;;;;;4148725;28;20053;-68
2022/05/13 03:18:06;;;;;;;0.00;0.00;;;20.10;85.80;;;;;;4148889;28;20385;-67
2022/05/13 03:20:31;;;;;;;0.00;0.00;;;20.10;86.10;;;;;;4134884;28;20159;-69
2022/05/13 03:22:56;;;;;;;0.00;0.00;;;20.10;86.20;;;;;;4134762;28;20125;-66
2022/05/13 03:25:22;;;;;;;0.00;0.00;;;20.20;86.20;;;;;;4148684;28;20050;-69
2022/05/13 03:27:46;;;;;;;0.00;0.00;;;20.10;86.00;;;;;;4148394;28;20041;-69
2022/05/13 03:30:11;;;;;;;0.00;0.00;;;20.00;85.80;;;;;;4148595;28;20057;-68
2022/05/13 03:32:36;;;;;;;0.00;0.00;;;19.70;86.20;;;;;;4134685;28;20058;-66
2022/05/13 03:35:01;;;;;;;0.00;0.00;;;19.70;86.70;;;;;;4148450;28;20583;-68
2022/05/13 03:37:25;;;;;;;0.00;0.00;;;19.60;87.20;;;;;;4148182;28;20065;-71
2022/05/13 03:39:49;;;;;;;0.00;0.00;;;19.60;87.60;;;;;;4148437;28;20053;-69
2022/05/13 03:42:11;;;;;;;0.00;0.00;;;19.70;87.60;;;;;;4148561;28;20061;-69
2022/05/13 03:44:35;;;;;;;0.00;0.00;;;19.70;87.40;;;;;;4148271;28;20046;-72
2022/05/13 03:46:59;;;;;;;0.00;0.00;;;19.80;87.40;;;;;;4148257;28;20132;-68
2022/05/13 03:49:29;;;;;;;0.00;0.00;;;19.80;86.70;;;;;;4148049;28;20053;-69
2022/05/13 03:51:53;;;;;;;0.00;0.00;;;19.80;86.10;;;;;;4134674;28;20385;-68
2022/05/13 03:54:15;;;;;;;0.00;0.00;;;19.90;85.40;;;;;;4161778;28;20037;-68
2022/05/13 03:56:37;;;;;;;0.00;0.00;;;19.90;84.50;;;;;;4148157;28;20054;-68
2022/05/13 03:58:59;;;;;;;0.00;0.00;;;19.90;84.30;;;;;;4148162;28;20088;-67
2022/05/13 04:01:21;;;;;;;0.00;0.00;;;19.90;83.80;;;;;;4135034;28;20054;-69
2022/05/13 04:03:44;;;;;;;0.00;0.00;;;20.00;83.70;;;;;;4134687;28;20075;-68
2022/05/13 04:08:58;;;;;;;0.00;0.00;;;20.10;83.70;;;;;;4148453;28;20476;-68
2022/05/13 04:11:24;;;;;;;0.00;0.00;;;20.00;84.10;;;;;;4148297;28;20061;-67
2022/05/13 04:16:29;;;;;;;0.00;0.00;;;19.90;84.00;;;;;;4161826;28;20045;-67
2022/05/13 04:18:55;;;;;;;0.00;0.00;;;19.90;84.40;;;;;;4148754;28;20053;-68
2022/05/13 04:21:24;;;;;;;0.00;0.00;;;20.00;84.90;;;;;;4148209;28;20057;-70
2022/05/13 04:23:49;;;;;;;0.00;0.00;;;20.10;85.10;;;;;;4134521;28;20055;-67
2022/05/13 04:26:15;;;;;;;0.00;0.00;;;20.20;85.00;;;;;;4148140;28;20049;-67
2022/05/13 04:28:44;;;;;;;0.00;0.00;;;20.20;84.90;;;;;;4161782;28;20140;-66
2022/05/13 04:31:11;;;;;;;0.00;0.00;;;20.30;85.10;;;;;;4134380;28;20129;-68
2022/05/13 04:33:33;;;;;;;0.00;0.00;;;20.20;84.80;;;;;;4150432;28;20049;-68
2022/05/13 04:35:58;;;;;;;0.00;0.00;;;20.30;85.00;;;;;;4151357;28;20432;-67
2022/05/13 04:38:22;;;;;;;0.00;0.00;;;20.30;84.80;;;;;;4151304;28;20134;-66
2022/05/13 04:40:46;;;;;;;0.00;0.00;;;20.20;84.70;;;;;;4151334;28;20409;-71
2022/05/13 04:43:11;;;;;;;0.00;0.00;;;20.20;85.30;;;;;;4151164;28;20064;-67
2022/05/13 04:45:33;;;;;;;0.00;0.00;;;20.20;85.90;;;;;;4151064;28;20088;-68
2022/05/13 04:48:18;;;;;;;0.00;0.00;;;20.10;86.50;;;;;;4138606;28;20046;-68
2022/05/13 04:50:50;;;;;;;0.00;0.00;;;20.10;87.30;;;;;;4153494;28;20133;-68
2022/05/13 04:53:16;;;;;;;0.00;0.00;;;20.10;87.70;;;;;;4167403;28;20048;-66
2022/05/13 04:55:40;;;;;;;0.00;0.00;;;20.00;88.10;;;;;;4153424;28;20057;-70
2022/05/13 04:58:04;;;;;;;0.00;0.00;;;20.00;88.20;;;;;;4153728;28;20052;-69
2022/05/13 05:00:29;;;;;;;0.00;0.00;;;20.00;88.40;;;;;;4153526;28;20054;-70
2022/05/13 05:02:54;;;;;;;0.00;0.00;;;19.90;89.30;;;;;;4153338;28;20124;-69
2022/05/13 05:05:18;;;;;;;0.00;0.00;;;19.60;90.10;;;;;;4153306;28;20495;-65
2022/05/13 05:07:45;;;;;;;0.00;0.00;;;19.40;90.60;;;;;;4126112;28;20058;-66
2022/05/13 05:10:08;;;;;;;0.00;0.00;;;19.30;91.00;;;;;;4125941;28;20054;-66
2022/05/13 05:12:33;;;;;;;0.00;0.00;;;19.20;91.10;;;;;;4139852;28;20081;-65
2022/05/13 05:14:58;;;;;;;0.00;0.00;;;19.30;90.90;;;;;;4153100;28;20103;-66
2022/05/13 05:17:22;;;;;;;0.00;0.00;;;19.30;90.90;;;;;;4139394;28;20104;-66
2022/05/13 05:19:44;;;;;;;0.00;0.00;;;19.30;90.80;;;;;;4139342;28;20054;-67
2022/05/13 05:22:08;;;;;;;0.00;0.00;;;19.30;90.50;;;;;;4153018;28;20077;-68
2022/05/13 05:24:32;;;;;;;0.00;0.00;;;19.20;90.50;;;;;;4153204;28;20045;-66
2022/05/13 05:26:54;;;;;;;0.00;0.00;;;19.10;90.50;;;;;;4152989;28;20046;-67
2022/05/13 05:29:23;;;;;;;0.00;0.00;;;19.20;90.50;;;;;;4152926;28;20136;-66
2022/05/13 05:31:51;;;;;;;0.00;0.00;;;19.30;90.30;;;;;;4139628;28;20050;-65
2022/05/13 05:34:16;;;;;;;0.00;0.00;;;19.50;90.10;;;;;;4152623;28;20046;-67
2022/05/13 05:36:41;;;;;;;0.00;0.00;;;19.60;90.00;;;;;;4139344;28;20106;-65
2022/05/13 05:39:03;;;;;;;0.00;0.00;;;19.60;89.70;;;;;;4125800;28;20371;-66
2022/05/13 05:41:26;;;;;;;0.00;0.00;;;19.60;89.80;;;;;;4152917;28;20104;-66
2022/05/13 05:43:51;;;;;;;0.00;0.00;;;19.40;90.00;;;;;;4152408;28;20053;-65
2022/05/13 05:46:13;;;;;;;0.00;0.00;;;19.40;90.00;;;;;;4152777;28;20116;-66
2022/05/13 05:48:36;;;;;;;0.00;0.00;;;19.50;89.90;;;;;;4152458;28;20058;-65
2022/05/13 05:50:58;;;;;;;0.00;0.00;;;19.50;89.70;;;;;;4152448;28;20108;-65
2022/05/13 05:58:50;;;;;;;0.00;0.00;;;19.60;90.00;;;;;;4139029;28;20121;-67
2022/05/13 06:01:13;;;;;;;0.00;0.00;;;19.40;90.40;;;;;;4152577;28;20084;-66
2022/05/13 06:03:37;;;;;;;0.00;0.00;;;19.40;90.50;;;;;;4152256;28;20088;-66
2022/05/13 06:06:05;;;;;;;0.00;0.00;;;19.40;90.40;;;;;;4152311;28;20046;-66
2022/05/13 06:08:30;;;;;;;0.00;0.00;;;19.60;90.20;;;;;;4139018;28;20050;-67
2022/05/13 06:10:54;;;;;;;0.00;0.00;;;19.60;89.10;;;;;;4138747;28;20096;-67
2022/05/13 06:13:21;;;;;;;0.00;0.00;;;19.60;88.30;;;;;;4152029;28;20144;-65
2022/05/13 06:15:43;;;;;;;0.00;0.00;;;19.60;88.10;;;;;;4152109;28;20040;-65
2022/05/13 06:18:07;;;;;;;0.00;0.00;;;19.70;88.00;;;;;;4152106;28;20107;-67
2022/05/13 06:20:33;;;;;;;0.00;0.00;;;19.80;88.10;;;;;;4152182;28;20049;-66
2022/05/13 06:23:01;;;;;;;0.00;0.00;;;19.90;87.90;;;;;;4151993;28;20049;-68
2022/05/13 06:25:28;;;;;;;0.00;0.00;;;19.90;87.40;;;;;;4152082;28;20038;-64
2022/05/13 06:27:54;;;;;;;0.00;0.00;;;20.00;87.60;;;;;;4151991;28;20041;-66
2022/05/13 06:30:26;;;;;;;0.00;0.00;;;20.00;87.20;;;;;;4152031;28;20137;-66
2022/05/13 06:32:48;;;;;;;0.00;0.00;;;20.00;87.60;;;;;;4151915;28;20092;-66
2022/05/13 06:35:11;;;;;;;0.00;0.00;;;19.90;88.00;;;;;;4151662;28;20061;-65
2022/05/13 06:37:36;;;;;;;0.00;0.00;;;19.90;88.50;;;;;;4151644;28;20138;-67
2022/05/13 06:39:58;;;;;;;0.00;0.00;;;19.90;89.10;;;;;;4152015;28;20042;-65
2022/05/13 06:42:20;;;;;;;0.00;0.00;;;19.70;89.90;;;;;;4151973;28;20798;-65
2022/05/13 06:44:43;;;;;;;0.00;0.00;;;19.60;90.30;;;;;;4152416;28;20051;-66
2022/05/13 06:47:11;;;;;;;0.00;0.00;;;19.60;90.50;;;;;;4151575;28;20050;-66
2022/05/13 06:49:38;;;;;;;0.00;0.00;;;19.50;90.80;;;;;;4151483;28;20554;-67
2022/05/13 06:52:06;;;;;;;0.00;0.00;;;19.50;90.90;;;;;;4151835;28;20057;-65
2022/05/13 06:54:48;;;;;;;0.00;0.00;;;19.70;91.00;;;;;;4140832;28;20053;-64
2022/05/13 06:57:10;;;;;;;0.00;0.00;;;19.60;90.80;;;;;;4151776;28;20076;-64
2022/05/13 06:59:34;;;;;;;0.00;0.00;;;19.60;90.70;;;;;;4138000;28;20053;-65
2022/05/13 07:01:59;;;;;;;0.00;0.00;;;19.60;90.50;;;;;;4151746;28;20128;-65
2022/05/13 07:04:24;;;;;;;0.00;0.00;;;19.50;90.70;;;;;;4151645;28;20543;-66
2022/05/13 07:06:49;;;;;;;0.00;0.00;;;19.30;91.10;;;;;;4151484;28;20407;-67
2022/05/13 07:09:13;;;;;;;0.00;0.00;;;19.20;91.50;;;;;;4137922;28;20062;-65
2022/05/13 07:11:38;;;;;;;0.00;0.00;;;19.20;91.70;;;;;;4151646;28;20049;-65
2022/05/13 07:14:03;;;;;;;0.00;0.00;;;19.30;91.80;;;;;;4151072;28;20042;-65
2022/05/13 07:16:27;;;;;;;0.00;0.00;;;19.40;91.80;;;;;;4151332;28;20440;-65
2022/05/13 07:18:50;;;;;;;0.00;0.00;;;19.40;91.70;;;;;;4151405;28;20068;-67
2022/05/13 07:21:12;;;;;;;0.00;0.00;;;19.30;91.60;;;;;;4137649;28;20081;-66
2022/05/13 07:23:34;;;;;;;0.00;0.00;;;19.30;91.40;;;;;;4151198;28;20038;-65
2022/05/13 07:25:58;;;;;;;0.00;0.00;;;19.30;91.60;;;;;;4137611;28;20077;-66
2022/05/13 07:28:22;;;;;;;0.00;0.00;;;19.40;91.50;;;;;;4151170;28;20180;-65
2022/05/13 07:30:47;;;;;;;0.00;0.00;;;19.30;91.70;;;;;;4137681;28;20079;-65
2022/05/13 07:33:10;;;;;;;0.00;0.00;;;19.30;91.70;;;;;;4151458;28;20057;-65
2022/05/13 07:35:34;;;;;;;0.00;0.00;;;19.40;91.60;;;;;;4123900;28;20047;-66
2022/05/13 07:37:59;;;;;;;0.00;0.00;;;19.30;91.80;;;;;;4151341;28;20360;-66
2022/05/13 07:43:06;;;;;;;0.00;0.00;;;19.60;91.90;;;;;;4151087;28;20053;-66
2022/05/13 07:45:35;;;;;;;0.00;0.00;;;19.60;91.80;;;;;;4137104;28;20086;-66
2022/05/13 07:48:01;;;;;;;0.00;0.00;;;19.70;91.80;;;;;;4150718;28;20046;-64
2022/05/13 07:50:28;;;;;;;0.00;0.00;;;19.80;91.60;;;;;;4151094;28;20473;-66
2022/05/13 07:52:53;;;;;;;0.00;0.00;;;19.70;91.60;;;;;;4137223;28;20065;-67
2022/05/13 07:55:18;;;;;;;0.00;0.00;;;19.60;91.50;;;;;;4150527;28;20096;-67
2022/05/13 07:57:42;;;;;;;0.00;0.00;;;19.50;91.40;;;;;;4151010;28;20539;-65
2022/05/13 08:02:50;;;;;;;0.00;0.00;;;19.60;91.30;;;;;;4150890;28;20140;-66
2022/05/13 08:05:12;;;;;;;0.00;0.00;;;19.50;91.10;;;;;;4137257;28;20050;-67
2022/05/13 08:07:36;;;;;;;0.00;0.00;;;19.50;91.10;;;;;;4136809;28;20054;-65
2022/05/13 08:09:58;;;;;;;0.00;0.00;;;19.70;90.90;;;;;;4164680;28;20053;-67
2022/05/13 08:12:20;;;;;;;0.00;0.00;;;19.80;90.70;;;;;;4151016;28;20038;-67
2022/05/13 08:14:42;;;;;;;0.00;0.00;;;19.80;90.60;;;;;;4150677;28;20520;-65
2022/05/13 08:17:04;;;;;;;0.00;0.00;;;19.90;90.30;;;;;;4137370;28;20129;-65
2022/05/13 08:19:26;;;;;;;0.00;0.00;;;20.10;89.40;;;;;;4164368;28;20053;-67
2022/05/13 08:21:48;;;;;;;0.00;0.00;;;20.10;88.60;;;;;;4150959;28;20046;-65
2022/05/13 08:24:10;;;;;;;0.00;0.00;;;20.10;87.00;;;;;;4164331;28;20243;-66
2022/05/13 08:26:33;;;;;;;0.00;0.00;;;20.10;86.90;;;;;;4150687;28;20083;-65
2022/05/13 08:28:59;;;;;;;0.00;0.00;;;20.20;87.00;;;;;;4137799;28;20064;-65
2022/05/13 08:31:21;;;;;;;0.00;0.00;;;20.40;86.70;;;;;;4137001;28;20054;-64
2022/05/13 08:33:50;;;;;;;0.00;0.00;;;20.50;85.60;;;;;;4136978;28;20066;-66
2022/05/13 08:36:12;;;;;;;0.00;0.00;;;20.50;85.50;;;;;;4150431;28;20041;-65
2022/05/13 08:38:39;;;;;;;0.00;0.00;;;20.60;86.10;;;;;;4150449;28;20042;-66
2022/05/13 08:41:10;;;;;;;0.00;0.00;;;20.60;86.60;;;;;;4150660;28;20068;-64
2022/05/13 08:43:36;;;;;;;0.00;0.00;;;20.70;86.50;;;;;;4150720;28;20408;-65
2022/05/13 08:46:07;;;;;;;0.00;0.00;;;20.80;86.50;;;;;;4150583;28;20042;-67
2022/05/13 08:48:38;;;;;;;0.00;0.00;;;20.90;84.90;;;;;;4150299;28;20050;-66
2022/05/13 08:51:24;;;;;;;;;;;21.00;84.20;;;;;;4150936;28;20046;-65
2022/05/13 08:54:09;;;;;;;0.00;0.00;;;21.00;82.90;;;;;;4150582;28;19929;-64
2022/05/13 08:56:34;;;;;;;0.00;0.00;;;21.10;82.80;;;;;;4164206;28;20080;-66
2022/05/13 08:59:12;;;;;;;0.00;0.00;;;21.20;82.20;;;;;;4150441;28;20368;-65
2022/05/13 09:01:39;;;;;;;0.00;0.00;;;21.30;81.60;;;;;;4150514;28;20042;-66
2022/05/13 09:04:12;;;;;;;0.00;0.00;;;21.40;82.10;;;;;;4136941;28;20808;-67
2022/05/13 09:06:48;;;;;;;0.00;0.00;;;21.50;81.20;;;;;;4150319;28;20046;-64
2022/05/13 09:09:13;;;;;;;0.00;0.00;;;21.50;81.60;;;;;;4164230;28;20080;-65
2022/05/13 09:11:55;;;;;;;0.00;0.00;;;21.60;81.20;;;;;;4150475;28;20057;-65
2022/05/13 09:14:35;;;;;;;0.00;0.00;;;21.60;80.90;;;;;;4164156;28;20049;-66
2022/05/13 09:17:31;;;;;;;0.00;0.00;;;21.70;81.40;;;;;;4150358;28;20050;-66
2022/05/13 09:20:03;;;;;;;0.00;0.00;;;21.70;81.00;;;;;;4165416;28;20042;-66
2022/05/13 09:22:51;;;;;;;0.00;0.00;;;21.80;80.50;;;;;;4153213;28;20130;-64
2022/05/13 09:25:28;;;;;;;0.00;0.00;;;21.90;80.30;;;;;;4139297;28;20051;-66
2022/05/13 09:28:00;;;;;;;0.00;0.00;;;22.10;80.40;;;;;;4152995;28;20054;-66
2022/05/13 09:30:36;;;;;;;0.00;0.00;;;22.10;79.80;;;;;;4152833;28;20562;-65
2022/05/13 09:33:20;;;;;;;0.00;0.00;;;22.30;80.40;;;;;;4153207;28;20104;-66
2022/05/13 09:35:42;;;;;;;0.00;0.00;;;22.40;80.40;;;;;;4152916;28;20100;-65
2022/05/13 09:38:16;;;;;;;0.00;0.00;;;22.50;80.30;;;;;;4166878;28;20060;-66
2022/05/13 09:40:55;;;;;;;0.00;0.00;;;22.70;78.90;;;;;;4152671;28;20129;-66
2022/05/13 09:43:32;;;;;;;0.00;0.00;;;22.70;78.80;;;;;;4152854;28;20513;-65
2022/05/13 09:46:22;;;;;;;0.00;0.00;;;22.80;79.00;;;;;;4152206;28;20049;-64
2022/05/13 09:48:58;;;;;;;0.00;0.00;;;23.00;78.90;;;;;;4152457;28;20100;-66
2022/05/13 09:51:39;;;;;;;0.00;0.00;;;23.10;78.90;;;;;;4152496;28;20139;-66
2022/05/13 09:54:12;;;;;;;0.00;0.00;;;23.20;78.20;;;;;;4152968;28;20065;-65
2022/05/13 09:56:50;;;;;;;0.00;0.00;;;23.30;77.70;;;;;;4152869;28;20417;-65
2022/05/13 09:59:25;;;;;;;0.00;0.00;;;23.30;77.00;;;;;;4139390;28;20109;-67
2022/05/13 10:01:51;;;;;;;0.00;0.00;;;23.20;76.90;;;;;;4166263;28;20057;-65
2022/05/13 10:04:21;;;;;;;0.00;0.00;;;23.10;76.60;;;;;;4152531;28;20085;-65
2022/05/13 10:06:47;;;;;;;0.00;0.00;;;23.10;77.50;;;;;;4139501;28;20571;-66
2022/05/13 10:15:14;;;;;;;0.00;0.00;;;23.20;76.60;;;;;;4152109;28;20049;-66
2022/05/13 10:17:47;;;;;;;0.00;0.00;;;23.10;76.90;;;;;;4166338;28;20115;-65
2022/05/13 10:20:16;;;;;;;0.00;0.00;;;23.20;77.60;;;;;;4138776;28;20465;-64
2022/05/13 10:23:15;;;;;;;0.00;0.00;;;23.20;76.70;;;;;;4152219;28;20136;-67
2022/05/13 10:26:02;;;;;;;0.00;0.00;;;23.40;76.80;;;;;;4152255;28;20053;-65
2022/05/13 10:28:40;;;;;;;0.00;0.00;;;23.50;75.40;;;;;;4138592;28;20448;-66
2022/05/13 10:31:08;;;;;;;0.00;0.00;;;23.50;75.40;;;;;;4152081;28;20050;-65
2022/05/13 10:33:52;;;;;;;0.00;0.00;;;23.40;75.30;;;;;;4152470;28;20436;-66
2022/05/13 10:36:35;;;;;;;0.00;0.00;;;23.40;75.10;;;;;;4165703;28;20111;-66
2022/05/13 10:39:15;;;;;;;0.00;0.00;;;23.30;75.20;;;;;;4153053;28;20051;-64
2022/05/13 10:41:47;;;;;;;0.00;0.00;;;23.10;76.30;;;;;;4152048;28;20050;-64
2022/05/13 10:44:23;;;;;;;0.00;0.00;;;22.90;78.00;;;;;;4152160;28;20037;-64
2022/05/13 10:47:21;;;;;;;0.00;0.00;;;22.70;78.70;;;;;;4138785;28;20042;-64
2022/05/13 10:49:46;;;;;;;0.00;0.00;;;22.70;79.10;;;;;;4152502;28;20081;-65
2022/05/13 10:52:19;;;;;;;0.00;0.00;;;22.60;79.30;;;;;;4152693;28;20519;-64
2022/05/13 10:54:47;;;;;;;0.00;0.00;;;22.40;79.60;;;;;;4165298;28;20045;-65
2022/05/13 10:57:23;;;;;;;0.00;0.00;;;22.10;80.70;;;;;;4151694;28;20056;-66
2022/05/13 11:00:09;;;;;;;0.00;0.00;;;21.80;81.20;;;;;;4138390;28;20054;-65
2022/05/13 11:02:38;;;;;;;0.00;0.00;;;21.50;81.80;;;;;;4167133;28;20463;-65
2022/05/13 11:05:03;;;;;;;0.00;0.00;;;21.30;82.50;;;;;;4151598;28;20132;-66
2022/05/13 11:07:32;;;;;;;0.00;0.00;;;21.20;82.40;;;;;;4165144;28;20388;-66
2022/05/13 11:10:20;;;;;;;0.00;0.00;;;21.10;81.90;;;;;;4151319;28;20088;-65
2022/05/13 11:13:05;;;;;;;0.00;0.00;;;21.00;81.50;;;;;;4137724;28;20444;-65
2022/05/13 11:15:52;;;;;;;0.00;0.00;;;21.00;81.40;;;;;;4151371;28;20068;-65
2022/05/13 11:18:27;;;;;;;0.00;0.00;;;20.80;81.50;;;;;;4124505;28;20534;-64
2022/05/13 11:21:20;;;;;;;0.00;0.00;;;20.80;81.30;;;;;;4151306;28;20041;-65
2022/05/13 11:26:42;;;;;;;0.00;0.00;;;20.70;80.70;;;;;;4151291;28;20050;-65
2022/05/13 11:29:27;;;;;;;0.00;0.00;;;20.70;80.30;;;;;;4151416;28;20342;-66
2022/05/13 11:31:56;;;;;;;0.00;0.00;;;20.60;80.10;;;;;;4165039;28;20060;-66
2022/05/13 11:34:38;;;;;;;0.00;0.00;;;20.40;80.80;;;;;;4151661;28;20064;-65
2022/05/13 11:37:10;;;;;;;0.00;0.00;;;20.40;80.40;;;;;;4151197;28;20058;-67
2022/05/13 11:39:56;;;;;;;0.00;0.00;;;20.50;80.20;;;;;;4151327;28;20076;-67
2022/05/13 11:43:18;;;;;;;0.00;0.00;;;20.70;80.00;;;;;;4150373;28;20115;-66
2022/05/13 11:46:01;;;;;;;0.00;0.00;;;20.80;79.90;;;;;;4132986;28;20050;-66
2022/05/13 11:48:35;;;;;;;0.00;0.00;;;20.70;80.30;;;;;;4150635;28;20081;-67
2022/05/13 11:51:09;;;;;;;0.00;0.00;;;20.80;80.50;;;;;;4137204;28;20050;-65
2022/05/13 11:53:43;;;;;;;0.00;0.00;;;21.10;80.10;;;;;;4150838;28;20046;-65
2022/05/13 11:56:30;;;;;;;0.00;0.00;;;21.30;79.70;;;;;;4150424;28;20603;-66
2022/05/13 11:59:04;;;;;;;0.00;0.00;;;21.50;79.50;;;;;;4137640;28;20146;-66
2022/05/13 12:01:38;;;;;;;0.00;0.00;;;21.60;79.50;;;;;;4134780;28;20046;-68
2022/05/13 12:04:20;;;;;;;0.00;0.00;;;21.70;79.40;;;;;;4148281;28;20054;-65
2022/05/13 12:06:51;;;;;;;0.00;0.00;;;21.50;79.60;;;;;;4132824;28;20053;-66
2022/05/13 12:09:17;;;;;;;0.00;0.00;;;21.60;80.00;;;;;;4148067;28;20101;-65
2022/05/13 12:12:00;;;;;;;0.00;0.00;;;21.70;79.70;;;;;;4134338;28;20137;-66
2022/05/13 12:14:40;;;;;;;0.00;0.00;;;21.80;79.60;;;;;;4134346;28;20057;-65
2022/05/13 12:17:20;;;;;;;0.00;0.00;;;21.60;78.70;;;;;;4134692;28;20150;-67
2022/05/13 12:20:13;;;;;;;0.00;0.00;;;21.50;78.90;;;;;;4148205;28;20074;-64
2022/05/13 12:22:47;;;;;;;0.00;0.00;;;21.30;78.80;;;;;;4148012;28;20077;-65
2022/05/13 12:25:33;;;;;;;0.00;0.00;;;21.20;78.80;;;;;;4134410;28;20042;-66
2022/05/13 12:28:07;;;;;;;0.00;0.00;;;21.30;78.70;;;;;;4134387;28;20141;-65
2022/05/13 12:30:37;;;;;;;0.00;0.00;;;21.40;78.30;;;;;;4136894;28;20433;-64
2022/05/13 12:38:26;;;;;;;0.00;0.00;;;21.20;78.00;;;;;;4164075;28;20041;-67
2022/05/13 12:41:01;;;;;;;0.00;0.00;;;21.20;78.40;;;;;;4150524;28;20046;-66
2022/05/13 12:43:44;;;;;;;0.00;0.00;;;21.20;78.30;;;;;;4136637;28;20101;-65
2022/05/13 12:46:19;;;;;;;0.00;0.00;;;21.20;78.70;;;;;;4150653;28;20053;-65
2022/05/13 12:49:03;;;;;;;0.00;0.00;;;21.10;79.20;;;;;;4150289;28;20405;-65
2022/05/13 12:51:37;;;;;;;0.00;0.00;;;21.20;79.20;;;;;;4150516;28;20108;-66
2022/05/13 12:53:59;;;;;;;0.00;0.00;;;21.10;78.80;;;;;;4152038;28;20092;-66
2022/05/13 12:56:52;;;;;;;0.00;0.00;;;21.00;78.90;;;;;;4165305;28;20075;-65
2022/05/13 12:59:24;;;;;;;0.00;0.00;;;20.80;79.40;;;;;;4168405;28;20065;-65
2022/05/13 13:01:53;;;;;;;0.00;0.00;;;20.90;79.20;;;;;;4137320;28;20100;-66
2022/05/13 13:04:22;;;;;;;0.00;0.00;;;20.80;79.70;;;;;;4161746;28;20137;-64
2022/05/13 13:06:48;;;;;;;0.00;0.00;;;20.70;79.70;;;;;;4169390;28;20049;-65
2022/05/13 13:09:47;;;;;;;0.00;0.00;;;20.90;79.70;;;;;;4154404;28;20041;-64
2022/05/13 13:12:23;;;;;;;0.00;0.00;;;21.00;79.70;;;;;;4151627;28;20052;-66
2022/05/13 13:15:17;;;;;;;0.00;0.00;;;20.80;80.00;;;;;;4153439;28;20124;-64
2022/05/13 13:17:59;;;;;;;0.00;0.00;;;20.50;81.10;;;;;;4153254;28;20061;-65
2022/05/13 13:20:22;;;;;;;0.00;0.00;;;20.60;81.60;;;;;;4153061;28;20062;-65
2022/05/13 13:22:53;;;;;;;0.00;0.00;;;20.70;81.40;;;;;;4139281;28;20104;-66
2022/05/13 13:25:28;;;;;;;0.00;0.00;;;20.70;80.80;;;;;;4139576;28;20053;-66
2022/05/13 13:28:04;;;;;;;0.00;0.00;;;20.80;80.50;;;;;;4152840;28;20196;-64
2022/05/13 13:30:32;;;;;;;0.00;0.00;;;20.80;79.80;;;;;;4152790;28;20038;-65
2022/05/13 13:33:05;;;;;;;0.00;0.00;;;20.90;79.30;;;;;;4139918;28;20053;-66